Time,TemperatureF,DewpointF,PressureIn,WindDirection,WindDirectionDegrees,WindSpeedMPH,WindSpeedGustMPH,Humidity,HourlyPrecipIn,Conditions,Clouds,dailyrainin,SolarRadiationWatts/m^2,SoftwareType,DateUTC
2013-07-18 00:12:00,83.3,43.0,30.11,SSE,163,0.0,-999.0,24,-99.99,,,0.00,0,weatherlink.com 1.10,2013-07-18 04:12:00,
2013-07-18 00:27:00,81.4,39.0,30.11,South,169,0.0,-999.0,22,-99.99,,,0.00,0,weatherlink.com 1.10,2013-07-18 04:27:00,
2013-07-18 00:42:00,80.2,36.0,30.10,South,170,0.0,-999.0,20,-99.99,,,0.00,0,weatherlink.com 1.10,2013-07-18 04:42:00,
2013-07-18 00:56:00,-90.0,-99.9,30.10,South,170,0.0,-999.0,-999,-99.99,,,0.00,0,weatherlink.com 1.10,2013-07-18 04:56:00,
2013-07-18 01:11:00,-90.0,-99.9,30.10,South,170,0.0,-999.0,-999,-99.99,,,0.00,0,weatherlink.com 1.10,2013-07-18 05:11:00,
2013-07-18 01:27:00,-90.0,-99.9,30.11,South,171,0.0,-999.0,-999,-99.99,,,0.00,0,weatherlink.com 1.10,2013-07-18 05:27:00,
2013-07-18 01:42:00,-90.0,-99.9,30.10,South,171,0.0,-999.0,-999,-99.99,,,0.00,0,weatherlink.com 1.10,2013-07-18 05:42:00,
2013-07-18 01:57:00,-90.0,-99.9,30.11,South,171,0.0,-999.0,-999,-99.99,,,0.00,0,weatherlink.com 1.10,2013-07-18 05:57:00,
2013-07-18 02:12:00,-90.0,-99.9,30.11,South,171,0.0,-999.0,-999,-99.99,,,0.00,0,weatherlink.com 1.10,2013-07-18 06:12:00,
2013-07-18 02:27:00,-90.0,-99.9,30.11,South,171,0.0,-999.0,-999,-99.99,,,0.00,0,weatherlink.com 1.10,2013-07-18 06:27:00,
2013-07-18 02:41:00,-90.0,-99.9,30.11,South,171,0.0,-999.0,-999,-99.99,,,0.00,0,weatherlink.com 1.10,2013-07-18 06:41:00,
2013-07-18 02:57:00,-90.0,-99.9,30.11,South,171,0.0,-999.0,-999,-99.99,,,0.00,0,weatherlink.com 1.10,2013-07-18 06:57:00,
2013-07-18 03:12:00,-90.0,-99.9,30.11,South,171,0.0,-999.0,-999,-99.99,,,0.00,0,weatherlink.com 1.10,2013-07-18 07:12:00,
2013-07-18 03:27:00,-90.0,-99.9,30.11,South,171,0.0,-999.0,-999,-99.99,,,0.00,0,weatherlink.com 1.10,2013-07-18 07:27:00,
2013-07-18 03:42:00,-90.0,-99.9,30.10,South,171,0.0,-999.0,-999,-99.99,,,0.00,0,weatherlink.com 1.10,2013-07-18 07:42:00,
2013-07-18 03:57:00,-90.0,-99.9,30.09,South,171,0.0,-999.0,-999,-99.99,,,0.00,0,weatherlink.com 1.10,2013-07-18 07:57:00,
2013-07-18 04:12:00,-90.0,-99.9,30.09,South,171,0.0,-999.0,-999,-99.99,,,0.00,0,weatherlink.com 1.10,2013-07-18 08:12:00,
2013-07-18 04:27:00,-90.0,-99.9,30.09,South,171,0.0,-999.0,-999,-99.99,,,0.00,0,weatherlink.com 1.10,2013-07-18 08:27:00,
2013-07-18 04:42:00,-90.0,-99.9,30.09,South,171,0.0,-999.0,-999,-99.99,,,0.00,0,weatherlink.com 1.10,2013-07-18 08:42:00,
2013-07-18 04:57:00,-90.0,-99.9,30.10,South,171,0.0,-999.0,-999,-99.99,,,0.00,0,weatherlink.com 1.10,2013-07-18 08:57:00,
2013-07-18 05:12:00,-90.0,-99.9,30.10,South,171,0.0,-999.0,-999,-99.99,,,0.00,0,weatherlink.com 1.10,2013-07-18 09:12:00,
2013-07-18 05:27:00,-90.0,-99.9,30.10,South,171,0.0,-999.0,-999,-99.99,,,0.00,0,weatherlink.com 1.10,2013-07-18 09:27:00,
2013-07-18 05:42:00,-88.9,-99.9,30.10,South,171,0.0,-999.0,-999,-99.99,,,0.00,0,weatherlink.com 1.10,2013-07-18 09:42:00,
2013-07-18 05:57:00,-86.6,-99.9,30.10,South,171,0.0,-999.0,-999,-99.99,,,0.00,7,weatherlink.com 1.10,2013-07-18 09:57:00,
2013-07-18 06:12:00,-84.3,-99.9,30.10,South,171,0.0,-999.0,-999,-99.99,,,0.00,14,weatherlink.com 1.10,2013-07-18 10:12:00,
2013-07-18 06:27:00,-77.4,-99.9,30.10,South,171,0.0,-999.0,-999,-99.99,,,0.00,30,weatherlink.com 1.10,2013-07-18 10:27:00,
2013-07-18 06:42:00,-70.5,-99.9,30.10,South,176,0.0,-999.0,-999,-99.99,,,0.00,53,weatherlink.com 1.10,2013-07-18 10:42:00,
2013-07-18 06:57:00,-61.4,-99.9,30.10,SW,227,0.0,-999.0,-999,-99.99,,,0.00,84,weatherlink.com 1.10,2013-07-18 10:57:00,
2013-07-18 07:12:00,-52.2,-99.9,30.10,SW,227,0.0,-999.0,-999,-99.99,,,0.00,130,weatherlink.com 1.10,2013-07-18 11:12:00,
2013-07-18 07:27:00,-52.2,-99.9,30.10,SW,228,0.0,-999.0,-999,-99.99,,,0.00,179,weatherlink.com 1.10,2013-07-18 11:27:00,
2013-07-18 07:42:00,-54.5,-99.9,30.10,SW,215,2.0,-999.0,-999,-99.99,,,0.00,223,weatherlink.com 1.10,2013-07-18 11:42:00,
2013-07-18 07:57:00,-59.1,-99.9,30.10,WSW,240,1.0,-999.0,-999,-99.99,,,0.01,269,weatherlink.com 1.10,2013-07-18 11:57:00,
2013-07-18 08:12:00,-63.7,-99.9,30.10,WSW,253,2.0,-999.0,-999,-99.99,,,0.01,302,weatherlink.com 1.10,2013-07-18 12:12:00,
2013-07-18 08:27:00,-72.8,-99.9,30.10,WSW,246,3.0,-999.0,-999,-99.99,,,0.01,309,weatherlink.com 1.10,2013-07-18 12:27:00,
2013-07-18 08:42:00,88.2,45.0,30.10,WSW,250,0.0,-999.0,22,-99.99,,,0.01,323,weatherlink.com 1.10,2013-07-18 12:42:00,
2013-07-18 08:57:00,89.1,50.0,30.10,WSW,239,0.0,-999.0,26,-99.99,,,0.01,420,weatherlink.com 1.10,2013-07-18 12:57:00,
2013-07-18 09:11:00,89.2,51.0,30.10,WSW,240,0.0,-999.0,27,-99.99,,,0.01,483,weatherlink.com 1.10,2013-07-18 13:11:00,
2013-07-18 09:27:00,90.0,56.0,30.10,West,263,2.0,-999.0,32,-99.99,,,0.01,506,weatherlink.com 1.10,2013-07-18 13:27:00,
2013-07-18 09:41:00,90.2,59.0,30.09,WSW,237,4.0,-999.0,35,-99.99,,,0.01,554,weatherlink.com 1.10,2013-07-18 13:41:00,
2013-07-18 09:56:00,90.9,59.0,30.09,West,267,2.0,-999.0,34,-99.99,,,0.01,582,weatherlink.com 1.10,2013-07-18 13:56:00,
2013-07-18 10:11:00,90.5,61.0,30.09,WSW,249,1.0,-999.0,37,-99.99,,,0.01,633,weatherlink.com 1.10,2013-07-18 14:11:00,
2013-07-18 10:26:00,91.4,62.0,30.09,WSW,245,2.0,-999.0,38,-99.99,,,0.01,679,weatherlink.com 1.10,2013-07-18 14:26:00,
2013-07-18 10:42:00,90.8,62.0,30.09,WSW,246,0.0,-999.0,38,-99.99,,,0.01,489,weatherlink.com 1.10,2013-07-18 14:42:00,
2013-07-18 10:57:00,92.0,64.0,30.08,West,271,0.0,-999.0,40,-99.99,,,0.01,610,weatherlink.com 1.10,2013-07-18 14:57:00,
2013-07-18 11:12:00,92.1,66.0,30.08,WSW,240,1.0,-999.0,42,-99.99,,,0.01,788,weatherlink.com 1.10,2013-07-18 15:12:00,
2013-07-18 11:27:00,92.0,65.0,30.08,WSW,258,2.0,-999.0,41,-99.99,,,0.01,223,weatherlink.com 1.10,2013-07-18 15:27:00,
2013-07-18 11:42:00,91.8,64.0,30.08,West,273,4.0,-999.0,40,-99.99,,,0.01,919,weatherlink.com 1.10,2013-07-18 15:42:00,
2013-07-18 11:57:00,92.9,68.0,30.07,WSW,242,3.0,-999.0,44,-99.99,,,0.01,939,weatherlink.com 1.10,2013-07-18 15:57:00,
2013-07-18 12:12:00,91.8,65.0,30.07,WSW,250,5.0,-999.0,41,-99.99,,,0.01,295,weatherlink.com 1.10,2013-07-18 16:12:00,
2013-07-18 12:26:00,88.0,39.0,30.06,WSW,246,0.0,-999.0,18,-99.99,,,0.03,805,weatherlink.com 1.10,2013-07-18 16:26:00,
2013-07-18 12:42:00,91.3,39.0,30.07,West,269,0.0,-999.0,16,-99.99,,,0.03,898,weatherlink.com 1.10,2013-07-18 16:42:00,
2013-07-18 12:57:00,91.8,64.0,30.06,WSW,251,2.0,-999.0,40,-99.99,,,0.03,969,weatherlink.com 1.10,2013-07-18 16:57:00,
2013-07-18 13:11:00,92.9,67.0,30.04,WSW,249,1.0,-999.0,42,-99.99,,,0.03,954,weatherlink.com 1.10,2013-07-18 17:11:00,
2013-07-18 13:27:00,93.4,69.0,30.04,WSW,258,4.0,-999.0,45,-99.99,,,0.03,1030,weatherlink.com 1.10,2013-07-18 17:27:00,
2013-07-18 13:41:00,92.8,69.0,30.05,SSW,196,2.0,-999.0,46,-99.99,,,0.03,1136,weatherlink.com 1.10,2013-07-18 17:41:00,
2013-07-18 13:57:00,87.1,66.0,30.05,East,85,4.0,-999.0,49,-99.99,,,0.03,144,weatherlink.com 1.10,2013-07-18 17:57:00,
2013-07-18 14:11:00,84.0,56.0,30.05,ENE,60,1.0,-999.0,38,-99.99,,,0.03,62,weatherlink.com 1.10,2013-07-18 18:11:00,
2013-07-18 14:26:00,83.8,41.0,30.05,NNE,21,0.0,-999.0,22,-99.99,,,0.03,83,weatherlink.com 1.10,2013-07-18 18:26:00,
2013-07-18 14:42:00,82.9,34.0,30.05,ENE,75,0.0,-999.0,17,-99.99,,,0.03,169,weatherlink.com 1.10,2013-07-18 18:42:00,
2013-07-18 14:57:00,83.5,33.0,30.04,ENE,67,0.0,-999.0,16,-99.99,,,0.03,271,weatherlink.com 1.10,2013-07-18 18:57:00,
2013-07-18 15:12:00,84.4,36.0,30.05,SE,140,5.0,-999.0,18,-99.99,,,0.03,657,weatherlink.com 1.10,2013-07-18 19:12:00,
2013-07-18 15:42:00,87.5,52.0,30.02,SSE,148,2.0,-999.0,29,-99.99,,,0.03,756,weatherlink.com 1.10,2013-07-18 19:42:00,
2013-07-18 15:57:00,88.0,55.0,30.00,ENE,74,2.0,-999.0,32,-99.99,,,0.03,369,weatherlink.com 1.10,2013-07-18 19:57:00,
2013-07-18 16:12:00,88.6,56.0,30.00,SSE,154,0.0,-999.0,33,-99.99,,,0.03,346,weatherlink.com 1.10,2013-07-18 20:12:00,
2013-07-18 16:26:00,88.5,56.0,30.01,SSE,156,1.0,-999.0,33,-99.99,,,0.03,311,weatherlink.com 1.10,2013-07-18 20:26:00,
2013-07-18 16:41:00,89.0,58.0,30.01,SSE,152,4.0,-999.0,35,-99.99,,,0.03,443,weatherlink.com 1.10,2013-07-18 20:41:00,
2013-07-18 16:57:00,90.0,60.0,30.00,East,92,0.0,-999.0,37,-99.99,,,0.03,636,weatherlink.com 1.10,2013-07-18 20:57:00,
2013-07-18 17:12:00,91.1,65.0,30.00,SSE,158,0.0,-999.0,42,-99.99,,,0.03,466,weatherlink.com 1.10,2013-07-18 21:12:00,
2013-07-18 17:27:00,91.5,65.0,30.01,SSE,156,0.0,-999.0,41,-99.99,,,0.03,461,weatherlink.com 1.10,2013-07-18 21:27:00,
2013-07-18 17:42:00,92.1,67.0,30.01,SE,142,3.0,-999.0,43,-99.99,,,0.03,413,weatherlink.com 1.10,2013-07-18 21:42:00,
2013-07-18 17:57:00,91.8,67.0,30.00,SSE,157,0.0,-999.0,44,-99.99,,,0.03,418,weatherlink.com 1.10,2013-07-18 21:57:00,
2013-07-18 18:12:00,92.8,69.0,30.00,WSW,258,4.0,-999.0,46,-99.99,,,0.03,341,weatherlink.com 1.10,2013-07-18 22:12:00,
2013-07-18 18:27:00,91.2,69.0,30.00,SSW,213,3.0,-999.0,48,-99.99,,,0.03,148,weatherlink.com 1.10,2013-07-18 22:27:00,
2013-07-18 18:42:00,89.9,68.0,30.00,WSW,257,6.0,-999.0,48,-99.99,,,0.03,79,weatherlink.com 1.10,2013-07-18 22:42:00,
2013-07-18 18:57:00,88.7,67.0,29.99,SW,236,4.0,-999.0,49,-99.99,,,0.03,67,weatherlink.com 1.10,2013-07-18 22:57:00,
2013-07-18 19:12:00,87.8,66.0,29.99,WSW,253,1.0,-999.0,49,-99.99,,,0.03,49,weatherlink.com 1.10,2013-07-18 23:12:00,
2013-07-18 19:27:00,87.1,66.0,29.98,WSW,250,2.0,-999.0,50,-99.99,,,0.03,42,weatherlink.com 1.10,2013-07-18 23:27:00,
2013-07-18 19:42:00,87.1,66.0,29.98,West,273,0.0,-999.0,49,-99.99,,,0.03,39,weatherlink.com 1.10,2013-07-18 23:42:00,
2013-07-18 19:57:00,86.9,65.0,29.98,West,267,0.0,-999.0,49,-99.99,,,0.03,35,weatherlink.com 1.10,2013-07-18 23:57:00,
2013-07-18 20:12:00,86.3,64.0,29.97,West,267,0.0,-999.0,47,-99.99,,,0.03,16,weatherlink.com 1.10,2013-07-19 00:12:00,
2013-07-18 20:27:00,86.1,62.0,29.97,West,267,0.0,-999.0,45,-99.99,,,0.03,11,weatherlink.com 1.10,2013-07-19 00:27:00,
2013-07-18 20:41:00,86.1,57.0,29.97,West,267,0.0,-999.0,37,-99.99,,,0.03,0,weatherlink.com 1.10,2013-07-19 00:41:00,
2013-07-18 20:57:00,85.4,51.0,29.97,West,267,0.0,-999.0,31,-99.99,,,0.03,0,weatherlink.com 1.10,2013-07-19 00:57:00,
2013-07-18 21:11:00,84.8,47.0,29.98,West,267,0.0,-999.0,27,-99.99,,,0.03,0,weatherlink.com 1.10,2013-07-19 01:11:00,
2013-07-18 21:26:00,84.9,49.0,29.97,West,267,0.0,-999.0,29,-99.99,,,0.03,0,weatherlink.com 1.10,2013-07-19 01:26:00,
2013-07-18 21:41:00,85.6,54.0,29.98,SW,234,0.0,-999.0,34,-99.99,,,0.03,0,weatherlink.com 1.10,2013-07-19 01:41:00,
2013-07-18 21:57:00,84.8,49.0,29.98,SW,234,0.0,-999.0,29,-99.99,,,0.03,0,weatherlink.com 1.10,2013-07-19 01:57:00,
2013-07-18 22:12:00,83.9,45.0,29.98,SW,234,0.0,-999.0,26,-99.99,,,0.03,0,weatherlink.com 1.10,2013-07-19 02:12:00,
2013-07-18 22:27:00,83.6,45.0,29.97,SW,234,0.0,-999.0,26,-99.99,,,0.03,0,weatherlink.com 1.10,2013-07-19 02:27:00,
2013-07-18 22:42:00,83.2,46.0,29.97,SW,234,0.0,-999.0,27,-99.99,,,0.03,0,weatherlink.com 1.10,2013-07-19 02:42:00,
2013-07-18 22:56:00,83.3,47.0,29.97,SW,233,0.0,-999.0,28,-99.99,,,0.03,0,weatherlink.com 1.10,2013-07-19 02:56:00,
2013-07-18 23:11:00,83.5,49.0,29.97,West,281,0.0,-999.0,30,-99.99,,,0.03,0,weatherlink.com 1.10,2013-07-19 03:11:00,
2013-07-18 23:26:00,83.0,47.0,29.97,West,281,0.0,-999.0,28,-99.99,,,0.03,0,weatherlink.com 1.10,2013-07-19 03:26:00,
2013-07-18 23:41:00,82.2,43.0,29.97,West,281,0.0,-999.0,25,-99.99,,,0.03,0,weatherlink.com 1.10,2013-07-19 03:41:00,
2013-07-18 23:57:00,81.0,36.0,29.97,West,281,0.0,-999.0,20,-99.99,,,0.03,0,weatherlink.com 1.10,2013-07-19 03:57:00,